sensor_id;sensor_type;location;lat;lon;timestamp;P1;durP1;ratioP1;P2;durP2;ratioP2
69779;SDS011;57052;55.602;38.096;2022-10-19T00:01:55;4.97;;;2.30;;
69779;SDS011;57052;55.602;38.096;2022-10-19T00:04:20;4.32;;;1.80;;
69779;SDS011;57052;55.602;38.096;2022-10-19T00:06:46;3.50;;;1.90;;
69779;SDS011;57052;55.602;38.096;2022-10-19T00:09:13;4.10;;;1.70;;
69779;SDS011;57052;55.602;38.096;2022-10-19T00:11:42;2.80;;;1.65;;
69779;SDS011;57052;55.602;38.096;2022-10-19T00:14:10;4.25;;;1.58;;
69779;SDS011;57052;55.602;38.096;2022-10-19T00:16:38;4.00;;;2.03;;
69779;SDS011;57052;55.602;38.096;2022-10-19T00:19:06;6.63;;;2.30;;
69779;SDS011;57052;55.602;38.096;2022-10-19T00:21:33;5.00;;;2.40;;
69779;SDS011;57052;55.602;38.096;2022-10-19T00:24:00;4.45;;;1.95;;
69779;SDS011;57052;55.602;38.096;2022-10-19T00:26:25;7.10;;;2.40;;
69779;SDS011;57052;55.602;38.096;2022-10-19T00:28:52;4.05;;;2.00;;
69779;SDS011;57052;55.602;38.096;2022-10-19T00:31:18;3.95;;;1.80;;
69779;SDS011;57052;55.602;38.096;2022-10-19T00:33:44;3.50;;;2.00;;
69779;SDS011;57052;55.602;38.096;2022-10-19T00:36:15;4.07;;;2.00;;
69779;SDS011;57052;55.602;38.096;2022-10-19T00:38:42;2.47;;;1.55;;
69779;SDS011;57052;55.602;38.096;2022-10-19T00:41:08;4.63;;;2.40;;
69779;SDS011;57052;55.602;38.096;2022-10-19T00:46:21;3.10;;;1.70;;
69779;SDS011;57052;55.602;38.096;2022-10-19T00:48:46;3.20;;;1.60;;
69779;SDS011;57052;55.602;38.096;2022-10-19T00:51:12;4.43;;;1.75;;
69779;SDS011;57052;55.602;38.096;2022-10-19T00:53:39;3.03;;;1.70;;
69779;SDS011;57052;55.602;38.096;2022-10-19T00:56:06;3.95;;;1.83;;
69779;SDS011;57052;55.602;38.096;2022-10-19T00:58:36;3.17;;;1.75;;
69779;SDS011;57052;55.602;38.096;2022-10-19T01:01:02;2.92;;;1.70;;
69779;SDS011;57052;55.602;38.096;2022-10-19T01:03:30;3.42;;;1.73;;
69779;SDS011;57052;55.602;38.096;2022-10-19T01:05:57;3.70;;;1.95;;
69779;SDS011;57052;55.602;38.096;2022-10-19T01:08:24;3.20;;;1.90;;
69779;SDS011;57052;55.602;38.096;2022-10-19T01:11:09;4.30;;;2.00;;
69779;SDS011;57052;55.602;38.096;2022-10-19T01:13:50;2.55;;;1.70;;
69779;SDS011;57052;55.602;38.096;2022-10-19T01:16:30;3.97;;;2.03;;
69779;SDS011;57052;55.602;38.096;2022-10-19T01:21:47;4.40;;;2.10;;
69779;SDS011;57052;55.602;38.096;2022-10-19T01:24:46;5.93;;;2.20;;
69779;SDS011;57052;55.602;38.096;2022-10-19T01:27:35;3.75;;;2.20;;
69779;SDS011;57052;55.602;38.096;2022-10-19T01:40:29;5.63;;;2.50;;
69779;SDS011;57052;55.602;38.096;2022-10-19T01:45:43;7.47;;;2.90;;
69779;SDS011;57052;55.602;38.096;2022-10-19T01:48:17;4.90;;;2.40;;
69779;SDS011;57052;55.602;38.096;2022-10-19T01:50:50;3.67;;;2.17;;
69779;SDS011;57052;55.602;38.096;2022-10-19T01:53:17;4.70;;;2.30;;
69779;SDS011;57052;55.602;38.096;2022-10-19T01:55:46;5.57;;;2.70;;
69779;SDS011;57052;55.602;38.096;2022-10-19T01:58:16;4.97;;;2.67;;
69779;SDS011;57052;55.602;38.096;2022-10-19T02:00:46;4.07;;;2.08;;
69779;SDS011;57052;55.602;38.096;2022-10-19T02:03:16;4.53;;;2.50;;
69779;SDS011;57052;55.602;38.096;2022-10-19T02:05:43;5.15;;;2.50;;
69779;SDS011;57052;55.602;38.096;2022-10-19T02:08:12;4.78;;;2.00;;
69779;SDS011;57052;55.602;38.096;2022-10-19T02:10:44;6.95;;;2.28;;
69779;SDS011;57052;55.602;38.096;2022-10-19T02:13:11;5.13;;;2.50;;
69779;SDS011;57052;55.602;38.096;2022-10-19T02:16:00;4.22;;;2.30;;
69779;SDS011;57052;55.602;38.096;2022-10-19T02:18:32;6.13;;;2.30;;
69779;SDS011;57052;55.602;38.096;2022-10-19T02:21:02;4.97;;;2.75;;
69779;SDS011;57052;55.602;38.096;2022-10-19T02:23:29;4.30;;;2.35;;
69779;SDS011;57052;55.602;38.096;2022-10-19T02:25:55;5.50;;;2.55;;
69779;SDS011;57052;55.602;38.096;2022-10-19T02:28:21;5.55;;;2.38;;
69779;SDS011;57052;55.602;38.096;2022-10-19T02:30:47;5.00;;;2.15;;
69779;SDS011;57052;55.602;38.096;2022-10-19T02:33:13;4.25;;;2.50;;
69779;SDS011;57052;55.602;38.096;2022-10-19T02:35:39;5.18;;;2.47;;
69779;SDS011;57052;55.602;38.096;2022-10-19T02:38:04;5.68;;;2.65;;
69779;SDS011;57052;55.602;38.096;2022-10-19T02:40:34;6.18;;;2.80;;
69779;SDS011;57052;55.602;38.096;2022-10-19T02:43:04;3.72;;;2.22;;
69779;SDS011;57052;55.602;38.096;2022-10-19T02:45:35;4.40;;;2.40;;
69779;SDS011;57052;55.602;38.096;2022-10-19T02:48:10;4.18;;;2.50;;
69779;SDS011;57052;55.602;38.096;2022-10-19T02:50:43;6.85;;;2.80;;
69779;SDS011;57052;55.602;38.096;2022-10-19T02:53:11;4.82;;;2.40;;
69779;SDS011;57052;55.602;38.096;2022-10-19T02:55:37;5.50;;;2.35;;
69779;SDS011;57052;55.602;38.096;2022-10-19T02:58:03;4.63;;;2.35;;
69779;SDS011;57052;55.602;38.096;2022-10-19T03:00:28;7.70;;;2.67;;
69779;SDS011;57052;55.602;38.096;2022-10-19T03:02:54;5.28;;;2.40;;
69779;SDS011;57052;55.602;38.096;2022-10-19T03:05:19;7.80;;;2.80;;
69779;SDS011;57052;55.602;38.096;2022-10-19T03:07:45;6.53;;;2.80;;
69779;SDS011;57052;55.602;38.096;2022-10-19T03:10:11;5.75;;;3.00;;
69779;SDS011;57052;55.602;38.096;2022-10-19T03:12:37;5.82;;;2.90;;
69779;SDS011;57052;55.602;38.096;2022-10-19T03:15:02;5.65;;;2.60;;
69779;SDS011;57052;55.602;38.096;2022-10-19T03:17:29;5.85;;;2.58;;
69779;SDS011;57052;55.602;38.096;2022-10-19T03:19:54;5.95;;;2.50;;
69779;SDS011;57052;55.602;38.096;2022-10-19T03:22:20;4.57;;;2.53;;
69779;SDS011;57052;55.602;38.096;2022-10-19T03:24:45;6.57;;;2.55;;
69779;SDS011;57052;55.602;38.096;2022-10-19T03:27:11;4.82;;;2.47;;
69779;SDS011;57052;55.602;38.096;2022-10-19T03:29:37;7.18;;;2.63;;
69779;SDS011;57052;55.602;38.096;2022-10-19T03:32:02;5.43;;;2.33;;
69779;SDS011;57052;55.602;38.096;2022-10-19T03:34:28;5.93;;;2.78;;
69779;SDS011;57052;55.602;38.096;2022-10-19T03:36:54;6.70;;;3.45;;
69779;SDS011;57052;55.602;38.096;2022-10-19T03:39:20;5.55;;;2.97;;
69779;SDS011;57052;55.602;38.096;2022-10-19T03:41:46;6.68;;;2.85;;
69779;SDS011;57052;55.602;38.096;2022-10-19T03:44:11;7.78;;;3.30;;
69779;SDS011;57052;55.602;38.096;2022-10-19T03:46:37;6.20;;;3.00;;
69779;SDS011;57052;55.602;38.096;2022-10-19T03:49:03;7.10;;;2.92;;
69779;SDS011;57052;55.602;38.096;2022-10-19T03:51:30;7.63;;;2.78;;
69779;SDS011;57052;55.602;38.096;2022-10-19T03:53:58;7.60;;;3.13;;
69779;SDS011;57052;55.602;38.096;2022-10-19T03:56:27;6.22;;;2.90;;
69779;SDS011;57052;55.602;38.096;2022-10-19T03:58:55;7.55;;;3.10;;
69779;SDS011;57052;55.602;38.096;2022-10-19T04:01:23;7.35;;;2.92;;
69779;SDS011;57052;55.602;38.096;2022-10-19T04:03:54;8.77;;;3.47;;
69779;SDS011;57052;55.602;38.096;2022-10-19T04:06:23;8.88;;;3.60;;
69779;SDS011;57052;55.602;38.096;2022-10-19T04:08:51;7.30;;;3.03;;
69779;SDS011;57052;55.602;38.096;2022-10-19T04:11:17;8.25;;;3.40;;
69779;SDS011;57052;55.602;38.096;2022-10-19T04:13:49;9.00;;;3.53;;
69779;SDS011;57052;55.602;38.096;2022-10-19T04:16:15;8.98;;;3.22;;
69779;SDS011;57052;55.602;38.096;2022-10-19T04:18:41;8.85;;;3.65;;
69779;SDS011;57052;55.602;38.096;2022-10-19T04:21:16;9.18;;;3.45;;
69779;SDS011;57052;55.602;38.096;2022-10-19T04:23:43;11.90;;;3.78;;
69779;SDS011;57052;55.602;38.096;2022-10-19T04:26:09;6.93;;;3.10;;
69779;SDS011;57052;55.602;38.096;2022-10-19T04:28:34;9.45;;;3.85;;
69779;SDS011;57052;55.602;38.096;2022-10-19T04:31:04;7.65;;;2.88;;
69779;SDS011;57052;55.602;38.096;2022-10-19T04:33:30;8.55;;;3.55;;
69779;SDS011;57052;55.602;38.096;2022-10-19T04:35:57;7.97;;;3.63;;
69779;SDS011;57052;55.602;38.096;2022-10-19T04:38:27;8.57;;;3.13;;
69779;SDS011;57052;55.602;38.096;2022-10-19T04:40:53;9.52;;;3.33;;
69779;SDS011;57052;55.602;38.096;2022-10-19T04:43:21;8.80;;;3.38;;
69779;SDS011;57052;55.602;38.096;2022-10-19T04:45:46;10.25;;;3.13;;
69779;SDS011;57052;55.602;38.096;2022-10-19T04:48:12;8.60;;;3.30;;
69779;SDS011;57052;55.602;38.096;2022-10-19T04:50:38;6.80;;;3.35;;
69779;SDS011;57052;55.602;38.096;2022-10-19T04:53:03;9.40;;;3.55;;
69779;SDS011;57052;55.602;38.096;2022-10-19T04:55:29;7.45;;;3.58;;
69779;SDS011;57052;55.602;38.096;2022-10-19T04:57:54;8.18;;;3.70;;
69779;SDS011;57052;55.602;38.096;2022-10-19T05:00:20;6.50;;;3.30;;
69779;SDS011;57052;55.602;38.096;2022-10-19T05:02:45;9.68;;;3.70;;
69779;SDS011;57052;55.602;38.096;2022-10-19T05:05:12;8.98;;;4.13;;
69779;SDS011;57052;55.602;38.096;2022-10-19T05:07:38;9.77;;;4.30;;
69779;SDS011;57052;55.602;38.096;2022-10-19T05:10:05;6.00;;;3.50;;
69779;SDS011;57052;55.602;38.096;2022-10-19T05:12:32;5.97;;;3.42;;
69779;SDS011;57052;55.602;38.096;2022-10-19T05:14:59;7.55;;;3.78;;
69779;SDS011;57052;55.602;38.096;2022-10-19T05:17:24;7.70;;;4.03;;
69779;SDS011;57052;55.602;38.096;2022-10-19T05:19:50;7.15;;;3.60;;
69779;SDS011;57052;55.602;38.096;2022-10-19T05:22:15;7.10;;;3.55;;
69779;SDS011;57052;55.602;38.096;2022-10-19T05:24:41;6.38;;;3.65;;
69779;SDS011;57052;55.602;38.096;2022-10-19T05:27:06;5.90;;;3.00;;
69779;SDS011;57052;55.602;38.096;2022-10-19T05:29:32;6.32;;;3.40;;
69779;SDS011;57052;55.602;38.096;2022-10-19T05:31:58;6.05;;;3.67;;
69779;SDS011;57052;55.602;38.096;2022-10-19T05:34:23;5.82;;;3.50;;
69779;SDS011;57052;55.602;38.096;2022-10-19T05:36:49;6.15;;;3.45;;
69779;SDS011;57052;55.602;38.096;2022-10-19T05:39:15;5.13;;;2.90;;
69779;SDS011;57052;55.602;38.096;2022-10-19T05:41:42;5.03;;;2.85;;
69779;SDS011;57052;55.602;38.096;2022-10-19T05:44:12;5.75;;;3.00;;
69779;SDS011;57052;55.602;38.096;2022-10-19T05:46:39;5.78;;;3.13;;
69779;SDS011;57052;55.602;38.096;2022-10-19T05:49:04;4.85;;;2.97;;
69779;SDS011;57052;55.602;38.096;2022-10-19T05:51:30;5.13;;;3.20;;
69779;SDS011;57052;55.602;38.096;2022-10-19T05:53:55;6.53;;;2.95;;
69779;SDS011;57052;55.602;38.096;2022-10-19T05:56:23;7.30;;;3.38;;
69779;SDS011;57052;55.602;38.096;2022-10-19T05:58:50;5.88;;;3.58;;
69779;SDS011;57052;55.602;38.096;2022-10-19T06:01:16;7.03;;;3.38;;
69779;SDS011;57052;55.602;38.096;2022-10-19T06:03:46;4.82;;;2.72;;
69779;SDS011;57052;55.602;38.096;2022-10-19T06:06:16;6.22;;;3.13;;
69779;SDS011;57052;55.602;38.096;2022-10-19T06:08:42;5.60;;;2.78;;
69779;SDS011;57052;55.602;38.096;2022-10-19T06:11:09;5.38;;;2.88;;
69779;SDS011;57052;55.602;38.096;2022-10-19T06:13:39;6.00;;;3.33;;
69779;SDS011;57052;55.602;38.096;2022-10-19T06:16:06;5.85;;;3.65;;
69779;SDS011;57052;55.602;38.096;2022-10-19T06:18:33;7.03;;;3.80;;
69779;SDS011;57052;55.602;38.096;2022-10-19T06:21:02;5.80;;;3.50;;
69779;SDS011;57052;55.602;38.096;2022-10-19T06:23:30;7.10;;;3.72;;
69779;SDS011;57052;55.602;38.096;2022-10-19T06:25:57;5.82;;;3.00;;
69779;SDS011;57052;55.602;38.096;2022-10-19T06:28:23;4.78;;;2.80;;
69779;SDS011;57052;55.602;38.096;2022-10-19T06:30:48;4.80;;;2.70;;
69779;SDS011;57052;55.602;38.096;2022-10-19T06:33:14;4.72;;;2.70;;
69779;SDS011;57052;55.602;38.096;2022-10-19T06:35:39;6.30;;;2.70;;
69779;SDS011;57052;55.602;38.096;2022-10-19T06:38:07;5.72;;;3.00;;
69779;SDS011;57052;55.602;38.096;2022-10-19T06:40:34;5.60;;;2.70;;
69779;SDS011;57052;55.602;38.096;2022-10-19T06:43:00;4.97;;;3.05;;
69779;SDS011;57052;55.602;38.096;2022-10-19T06:45:26;3.63;;;2.08;;
69779;SDS011;57052;55.602;38.096;2022-10-19T06:47:52;4.03;;;2.00;;
69779;SDS011;57052;55.602;38.096;2022-10-19T06:50:17;4.95;;;2.67;;
69779;SDS011;57052;55.602;38.096;2022-10-19T06:52:44;4.78;;;2.53;;
69779;SDS011;57052;55.602;38.096;2022-10-19T06:55:10;5.20;;;2.25;;
69779;SDS011;57052;55.602;38.096;2022-10-19T06:57:37;3.72;;;2.22;;
69779;SDS011;57052;55.602;38.096;2022-10-19T07:00:06;6.43;;;2.40;;
69779;SDS011;57052;55.602;38.096;2022-10-19T07:02:32;4.53;;;2.53;;
69779;SDS011;57052;55.602;38.096;2022-10-19T07:04:57;5.43;;;2.45;;
69779;SDS011;57052;55.602;38.096;2022-10-19T07:07:23;6.65;;;3.00;;
69779;SDS011;57052;55.602;38.096;2022-10-19T07:09:49;4.43;;;2.70;;
69779;SDS011;57052;55.602;38.096;2022-10-19T07:12:15;4.55;;;3.00;;
69779;SDS011;57052;55.602;38.096;2022-10-19T07:14:41;6.15;;;3.20;;
69779;SDS011;57052;55.602;38.096;2022-10-19T07:17:07;5.18;;;3.00;;
69779;SDS011;57052;55.602;38.096;2022-10-19T07:19:35;4.28;;;2.75;;
69779;SDS011;57052;55.602;38.096;2022-10-19T07:22:00;4.55;;;2.88;;
69779;SDS011;57052;55.602;38.096;2022-10-19T07:24:26;4.10;;;2.47;;
69779;SDS011;57052;55.602;38.096;2022-10-19T07:26:52;5.15;;;2.80;;
69779;SDS011;57052;55.602;38.096;2022-10-19T07:29:17;4.90;;;2.70;;
69779;SDS011;57052;55.602;38.096;2022-10-19T07:31:43;5.90;;;2.88;;
69779;SDS011;57052;55.602;38.096;2022-10-19T07:34:09;5.25;;;2.75;;
69779;SDS011;57052;55.602;38.096;2022-10-19T07:36:36;5.18;;;3.08;;
69779;SDS011;57052;55.602;38.096;2022-10-19T07:39:02;5.70;;;2.83;;
69779;SDS011;57052;55.602;38.096;2022-10-19T07:41:30;8.05;;;3.00;;
69779;SDS011;57052;55.602;38.096;2022-10-19T07:43:56;5.00;;;2.88;;
69779;SDS011;57052;55.602;38.096;2022-10-19T07:46:23;5.50;;;3.08;;
69779;SDS011;57052;55.602;38.096;2022-10-19T07:49:02;5.90;;;3.17;;
69779;SDS011;57052;55.602;38.096;2022-10-19T07:51:29;6.70;;;3.25;;
69779;SDS011;57052;55.602;38.096;2022-10-19T07:53:54;6.40;;;3.33;;
69779;SDS011;57052;55.602;38.096;2022-10-19T07:56:22;7.07;;;3.33;;
69779;SDS011;57052;55.602;38.096;2022-10-19T07:58:50;7.57;;;3.35;;
69779;SDS011;57052;55.602;38.096;2022-10-19T08:01:19;8.40;;;3.60;;
69779;SDS011;57052;55.602;38.096;2022-10-19T08:03:53;7.35;;;3.40;;
69779;SDS011;57052;55.602;38.096;2022-10-19T08:06:20;6.25;;;3.42;;
69779;SDS011;57052;55.602;38.096;2022-10-19T08:08:47;7.47;;;3.30;;
69779;SDS011;57052;55.602;38.096;2022-10-19T08:11:15;7.50;;;3.45;;
69779;SDS011;57052;55.602;38.096;2022-10-19T08:13:46;6.40;;;3.17;;
69779;SDS011;57052;55.602;38.096;2022-10-19T08:18:54;4.97;;;2.90;;
69779;SDS011;57052;55.602;38.096;2022-10-19T08:21:21;5.35;;;2.90;;
69779;SDS011;57052;55.602;38.096;2022-10-19T08:23:47;4.60;;;3.00;;
69779;SDS011;57052;55.602;38.096;2022-10-19T08:26:12;4.55;;;2.70;;
69779;SDS011;57052;55.602;38.096;2022-10-19T08:28:40;5.45;;;3.03;;
69779;SDS011;57052;55.602;38.096;2022-10-19T08:31:13;5.60;;;2.65;;
69779;SDS011;57052;55.602;38.096;2022-10-19T08:33:41;4.38;;;2.42;;
69779;SDS011;57052;55.602;38.096;2022-10-19T08:36:07;4.82;;;3.05;;
69779;SDS011;57052;55.602;38.096;2022-10-19T08:38:35;3.85;;;2.72;;
69779;SDS011;57052;55.602;38.096;2022-10-19T08:46:38;4.90;;;2.90;;
69779;SDS011;57052;55.602;38.096;2022-10-19T08:49:08;6.03;;;3.00;;
69779;SDS011;57052;55.602;38.096;2022-10-19T08:51:39;5.82;;;3.08;;
69779;SDS011;57052;55.602;38.096;2022-10-19T08:54:11;8.57;;;3.33;;
69779;SDS011;57052;55.602;38.096;2022-10-19T08:56:56;6.43;;;3.22;;
69779;SDS011;57052;55.602;38.096;2022-10-19T08:59:37;6.47;;;3.72;;
69779;SDS011;57052;55.602;38.096;2022-10-19T09:02:12;6.65;;;3.67;;
69779;SDS011;57052;55.602;38.096;2022-10-19T09:04:40;6.63;;;3.75;;
69779;SDS011;57052;55.602;38.096;2022-10-19T09:12:43;7.70;;;3.42;;
69779;SDS011;57052;55.602;38.096;2022-10-19T09:15:12;5.85;;;3.05;;
69779;SDS011;57052;55.602;38.096;2022-10-19T09:17:41;5.90;;;3.15;;
69779;SDS011;57052;55.602;38.096;2022-10-19T09:20:42;5.97;;;2.70;;
69779;SDS011;57052;55.602;38.096;2022-10-19T09:23:05;5.07;;;2.30;;
69779;SDS011;57052;55.602;38.096;2022-10-19T09:25:41;4.22;;;2.30;;
69779;SDS011;57052;55.602;38.096;2022-10-19T09:30:56;3.15;;;2.05;;
69779;SDS011;57052;55.602;38.096;2022-10-19T09:33:27;4.47;;;1.70;;
69779;SDS011;57052;55.602;38.096;2022-10-19T09:35:57;3.58;;;1.55;;
69779;SDS011;57052;55.602;38.096;2022-10-19T09:38:26;3.00;;;1.75;;
69779;SDS011;57052;55.602;38.096;2022-10-19T09:40:52;3.38;;;2.00;;
69779;SDS011;57052;55.602;38.096;2022-10-19T09:43:20;4.07;;;2.35;;
69779;SDS011;57052;55.602;38.096;2022-10-19T09:45:57;4.20;;;1.70;;
69779;SDS011;57052;55.602;38.096;2022-10-19T09:48:58;5.17;;;1.73;;
69779;SDS011;57052;55.602;38.096;2022-10-19T09:51:25;3.45;;;1.88;;
69779;SDS011;57052;55.602;38.096;2022-10-19T09:54:03;2.90;;;1.73;;
69779;SDS011;57052;55.602;38.096;2022-10-19T09:56:30;3.38;;;1.90;;
69779;SDS011;57052;55.602;38.096;2022-10-19T09:59:02;3.03;;;1.55;;
69779;SDS011;57052;55.602;38.096;2022-10-19T10:01:35;2.65;;;1.45;;
69779;SDS011;57052;55.602;38.096;2022-10-19T10:06:42;1.95;;;1.23;;
69779;SDS011;57052;55.602;38.096;2022-10-19T10:09:14;1.98;;;1.17;;
69779;SDS011;57052;55.602;38.096;2022-10-19T10:11:46;2.70;;;1.40;;
69779;SDS011;57052;55.602;38.096;2022-10-19T10:22:33;5.20;;;2.42;;
69779;SDS011;57052;55.602;38.096;2022-10-19T10:25:01;3.53;;;1.73;;
69779;SDS011;57052;55.602;38.096;2022-10-19T10:27:37;3.25;;;1.90;;
69779;SDS011;57052;55.602;38.096;2022-10-19T10:30:07;3.42;;;1.83;;
69779;SDS011;57052;55.602;38.096;2022-10-19T10:32:42;3.10;;;1.70;;
69779;SDS011;57052;55.602;38.096;2022-10-19T10:35:16;2.55;;;1.75;;
69779;SDS011;57052;55.602;38.096;2022-10-19T10:37:45;4.18;;;1.70;;
69779;SDS011;57052;55.602;38.096;2022-10-19T10:42:46;4.10;;;2.00;;
69779;SDS011;57052;55.602;38.096;2022-10-19T10:47:42;3.88;;;2.20;;
69779;SDS011;57052;55.602;38.096;2022-10-19T10:50:22;3.75;;;2.00;;
69779;SDS011;57052;55.602;38.096;2022-10-19T10:53:00;2.47;;;1.58;;
69779;SDS011;57052;55.602;38.096;2022-10-19T10:55:27;3.63;;;1.73;;
69779;SDS011;57052;55.602;38.096;2022-10-19T10:58:01;2.95;;;1.60;;
69779;SDS011;57052;55.602;38.096;2022-10-19T11:00:41;3.30;;;1.90;;
69779;SDS011;57052;55.602;38.096;2022-10-19T11:03:21;4.85;;;2.13;;
69779;SDS011;57052;55.602;38.096;2022-10-19T11:05:56;5.13;;;2.28;;
69779;SDS011;57052;55.602;38.096;2022-10-19T11:16:28;3.55;;;1.70;;
69779;SDS011;57052;55.602;38.096;2022-10-19T11:21:43;4.63;;;1.80;;
69779;SDS011;57052;55.602;38.096;2022-10-19T11:29:44;4.40;;;1.75;;
69779;SDS011;57052;55.602;38.096;2022-10-19T11:32:17;3.10;;;1.58;;
69779;SDS011;57052;55.602;38.096;2022-10-19T11:35:06;3.03;;;1.75;;
69779;SDS011;57052;55.602;38.096;2022-10-19T11:40:27;4.93;;;1.90;;
69779;SDS011;57052;55.602;38.096;2022-10-19T11:48:24;3.72;;;2.10;;
69779;SDS011;57052;55.602;38.096;2022-10-19T11:50:54;4.47;;;2.67;;
69779;SDS011;57052;55.602;38.096;2022-10-19T11:55:59;5.05;;;3.03;;
69779;SDS011;57052;55.602;38.096;2022-10-19T12:10:35;5.47;;;2.92;;
69779;SDS011;57052;55.602;38.096;2022-10-19T12:13:03;4.82;;;3.00;;
69779;SDS011;57052;55.602;38.096;2022-10-19T12:15:40;5.15;;;2.67;;
69779;SDS011;57052;55.602;38.096;2022-10-19T12:18:35;4.65;;;2.60;;
69779;SDS011;57052;55.602;38.096;2022-10-19T12:21:10;4.93;;;2.70;;
69779;SDS011;57052;55.602;38.096;2022-10-19T12:23:53;6.00;;;2.83;;
69779;SDS011;57052;55.602;38.096;2022-10-19T12:26:23;6.95;;;3.30;;
69779;SDS011;57052;55.602;38.096;2022-10-19T12:28:57;11.73;;;3.40;;
69779;SDS011;57052;55.602;38.096;2022-10-19T12:31:26;11.68;;;3.42;;
69779;SDS011;57052;55.602;38.096;2022-10-19T12:34:01;5.20;;;2.63;;
69779;SDS011;57052;55.602;38.096;2022-10-19T12:36:33;6.78;;;3.15;;
69779;SDS011;57052;55.602;38.096;2022-10-19T12:39:15;6.47;;;3.03;;
69779;SDS011;57052;55.602;38.096;2022-10-19T12:42:20;6.22;;;2.90;;
69779;SDS011;57052;55.602;38.096;2022-10-19T12:47:39;6.10;;;3.38;;
69779;SDS011;57052;55.602;38.096;2022-10-19T12:50:36;6.50;;;3.70;;
69779;SDS011;57052;55.602;38.096;2022-10-19T13:01:27;6.05;;;3.20;;
69779;SDS011;57052;55.602;38.096;2022-10-19T13:04:09;5.93;;;3.47;;
69779;SDS011;57052;55.602;38.096;2022-10-19T13:06:46;6.35;;;3.45;;
69779;SDS011;57052;55.602;38.096;2022-10-19T13:09:45;10.10;;;3.35;;
69779;SDS011;57052;55.602;38.096;2022-10-19T13:25:33;6.53;;;3.88;;
69779;SDS011;57052;55.602;38.096;2022-10-19T13:38:29;7.22;;;4.00;;
69779;SDS011;57052;55.602;38.096;2022-10-19T14:00:27;5.70;;;3.22;;
69779;SDS011;57052;55.602;38.096;2022-10-19T14:11:34;7.00;;;4.18;;
69779;SDS011;57052;55.602;38.096;2022-10-19T14:21:58;7.97;;;3.92;;
69779;SDS011;57052;55.602;38.096;2022-10-19T14:24:32;7.28;;;3.80;;
69779;SDS011;57052;55.602;38.096;2022-10-19T14:27:00;8.23;;;3.92;;
69779;SDS011;57052;55.602;38.096;2022-10-19T14:29:52;9.05;;;4.53;;
69779;SDS011;57052;55.602;38.096;2022-10-19T14:32:19;9.50;;;4.47;;
69779;SDS011;57052;55.602;38.096;2022-10-19T14:34:48;8.50;;;4.65;;
69779;SDS011;57052;55.602;38.096;2022-10-19T14:37:21;7.90;;;4.80;;
69779;SDS011;57052;55.602;38.096;2022-10-19T14:40:03;9.90;;;4.65;;
69779;SDS011;57052;55.602;38.096;2022-10-19T14:42:46;8.73;;;4.28;;
69779;SDS011;57052;55.602;38.096;2022-10-19T14:45:23;7.97;;;4.15;;
69779;SDS011;57052;55.602;38.096;2022-10-19T14:50:27;7.93;;;4.50;;
69779;SDS011;57052;55.602;38.096;2022-10-19T14:53:05;7.20;;;4.00;;
69779;SDS011;57052;55.602;38.096;2022-10-19T14:55:34;7.88;;;4.25;;
69779;SDS011;57052;55.602;38.096;2022-10-19T14:58:10;8.35;;;3.85;;
69779;SDS011;57052;55.602;38.096;2022-10-19T15:00:40;8.32;;;3.85;;
69779;SDS011;57052;55.602;38.096;2022-10-19T15:03:08;6.03;;;3.75;;
69779;SDS011;57052;55.602;38.096;2022-10-19T15:05:39;9.35;;;3.63;;
69779;SDS011;57052;55.602;38.096;2022-10-19T15:11:06;7.30;;;3.92;;
69779;SDS011;57052;55.602;38.096;2022-10-19T15:13:44;7.30;;;3.65;;
69779;SDS011;57052;55.602;38.096;2022-10-19T15:19:27;8.32;;;4.07;;
69779;SDS011;57052;55.602;38.096;2022-10-19T15:22:10;9.25;;;3.83;;
69779;SDS011;57052;55.602;38.096;2022-10-19T15:25:01;10.45;;;4.57;;
69779;SDS011;57052;55.602;38.096;2022-10-19T15:27:43;9.13;;;5.10;;
69779;SDS011;57052;55.602;38.096;2022-10-19T15:32:53;8.30;;;4.38;;
69779;SDS011;57052;55.602;38.096;2022-10-19T15:35:24;9.15;;;4.85;;
69779;SDS011;57052;55.602;38.096;2022-10-19T15:38:04;9.82;;;5.00;;
69779;SDS011;57052;55.602;38.096;2022-10-19T15:40:36;8.68;;;4.28;;
69779;SDS011;57052;55.602;38.096;2022-10-19T15:46:03;10.85;;;4.68;;
69779;SDS011;57052;55.602;38.096;2022-10-19T15:48:50;8.48;;;4.82;;
69779;SDS011;57052;55.602;38.096;2022-10-19T15:53:53;12.25;;;4.85;;
69779;SDS011;57052;55.602;38.096;2022-10-19T15:56:20;7.53;;;4.10;;
69779;SDS011;57052;55.602;38.096;2022-10-19T15:58:48;9.00;;;4.18;;
69779;SDS011;57052;55.602;38.096;2022-10-19T16:01:16;8.73;;;4.47;;
69779;SDS011;57052;55.602;38.096;2022-10-19T16:03:43;13.43;;;5.65;;
69779;SDS011;57052;55.602;38.096;2022-10-19T16:06:09;10.70;;;4.88;;
69779;SDS011;57052;55.602;38.096;2022-10-19T16:08:35;8.82;;;4.35;;
69779;SDS011;57052;55.602;38.096;2022-10-19T16:11:01;9.27;;;4.63;;
69779;SDS011;57052;55.602;38.096;2022-10-19T16:13:28;9.02;;;4.53;;
69779;SDS011;57052;55.602;38.096;2022-10-19T16:15:57;8.38;;;4.63;;
69779;SDS011;57052;55.602;38.096;2022-10-19T16:18:28;8.80;;;5.00;;
69779;SDS011;57052;55.602;38.096;2022-10-19T16:20:53;9.88;;;4.45;;
69779;SDS011;57052;55.602;38.096;2022-10-19T16:23:19;7.80;;;4.35;;
69779;SDS011;57052;55.602;38.096;2022-10-19T16:25:46;8.18;;;4.40;;
69779;SDS011;57052;55.602;38.096;2022-10-19T16:28:11;6.43;;;3.95;;
69779;SDS011;57052;55.602;38.096;2022-10-19T16:30:37;9.75;;;4.60;;
69779;SDS011;57052;55.602;38.096;2022-10-19T16:33:04;8.70;;;4.90;;
69779;SDS011;57052;55.602;38.096;2022-10-19T16:35:29;7.53;;;3.92;;
69779;SDS011;57052;55.602;38.096;2022-10-19T16:37:55;8.55;;;4.50;;
69779;SDS011;57052;55.602;38.096;2022-10-19T16:40:23;9.15;;;4.13;;
69779;SDS011;57052;55.602;38.096;2022-10-19T16:42:49;7.72;;;4.10;;
69779;SDS011;57052;55.602;38.096;2022-10-19T16:45:14;8.45;;;3.85;;
69779;SDS011;57052;55.602;38.096;2022-10-19T16:47:40;9.38;;;3.80;;
69779;SDS011;57052;55.602;38.096;2022-10-19T16:50:09;8.00;;;4.22;;
69779;SDS011;57052;55.602;38.096;2022-10-19T16:52:35;8.73;;;4.80;;
69779;SDS011;57052;55.602;38.096;2022-10-19T16:55:02;8.30;;;4.28;;
69779;SDS011;57052;55.602;38.096;2022-10-19T16:57:28;6.15;;;3.60;;
69779;SDS011;57052;55.602;38.096;2022-10-19T16:59:54;8.85;;;3.83;;
69779;SDS011;57052;55.602;38.096;2022-10-19T17:02:20;7.65;;;3.60;;
69779;SDS011;57052;55.602;38.096;2022-10-19T17:04:47;6.22;;;3.35;;
69779;SDS011;57052;55.602;38.096;2022-10-19T17:07:15;6.15;;;3.47;;
69779;SDS011;57052;55.602;38.096;2022-10-19T17:09:46;6.28;;;3.47;;
69779;SDS011;57052;55.602;38.096;2022-10-19T17:12:12;11.52;;;3.50;;
69779;SDS011;57052;55.602;38.096;2022-10-19T17:14:39;7.43;;;3.58;;
69779;SDS011;57052;55.602;38.096;2022-10-19T17:17:06;8.00;;;4.03;;
69779;SDS011;57052;55.602;38.096;2022-10-19T17:19:34;9.30;;;4.10;;
69779;SDS011;57052;55.602;38.096;2022-10-19T17:22:05;8.35;;;4.20;;
69779;SDS011;57052;55.602;38.096;2022-10-19T17:24:33;7.28;;;4.00;;
69779;SDS011;57052;55.602;38.096;2022-10-19T17:27:01;7.88;;;4.10;;
69779;SDS011;57052;55.602;38.096;2022-10-19T17:29:27;7.95;;;4.28;;
69779;SDS011;57052;55.602;38.096;2022-10-19T17:31:53;7.43;;;4.03;;
69779;SDS011;57052;55.602;38.096;2022-10-19T17:34:18;13.75;;;6.85;;
69779;SDS011;57052;55.602;38.096;2022-10-19T17:36:44;8.25;;;4.30;;
69779;SDS011;57052;55.602;38.096;2022-10-19T17:39:12;7.00;;;3.85;;
69779;SDS011;57052;55.602;38.096;2022-10-19T17:41:49;7.05;;;3.50;;
69779;SDS011;57052;55.602;38.096;2022-10-19T17:44:15;6.35;;;3.55;;
69779;SDS011;57052;55.602;38.096;2022-10-19T17:46:43;7.00;;;3.08;;